Time;durP1;ratioP1;P1;durP2;ratioP2;P2;SDS_P1;SDS_P2;PMS_P1;PMS_P2;Temp;Humidity;BMP_temperature;BMP_pressure;BME280_temperature;BME280_humidity;BME280_pressure;Samples;Min_cycle;Max_cycle;Signal;HPM_P1;HPM_P2
2023/04/14 00:00:00;;;;;;;10.75;2.40;;;;;;;;;;6222284;23;20032;-95
2023/04/14 00:02:26;;;;;;;10.30;3.30;;;;;;;;;;6223147;23;20013;-95
2023/04/14 00:04:55;;;;;;;26.13;4.85;;;;;;;;;;6223535;23;20095;-95
2023/04/14 00:07:22;;;;;;;11.90;3.63;;;;;;;;;;6247702;23;21837;-94
2023/04/14 00:09:48;;;;;;;19.17;4.22;;;;;;;;;;6222108;23;20028;-94
2023/04/14 00:12:14;;;;;;;17.30;4.45;;;;;;;;;;6222164;23;20008;-94
2023/04/14 00:14:42;;;;;;;13.95;3.33;;;;;;;;;;6248174;23;20013;-95
2023/04/14 00:17:09;;;;;;;18.95;5.13;;;;;;;;;;6222682;23;20008;-95
2023/04/14 00:19:38;;;;;;;17.58;5.13;;;;;;;;;;6221020;23;20009;-95
2023/04/14 00:22:08;;;;;;;20.23;5.05;;;;;;;;;;6247296;22;20004;-95
2023/04/14 00:24:42;;;;;;;14.85;4.30;;;;;;;;;;6221617;22;20019;-94
2023/04/14 00:27:09;;;;;;;11.35;4.07;;;;;;;;;;6218471;23;20012;-95
2023/04/14 00:29:39;;;;;;;15.15;3.72;;;;;;;;;;6220471;23;20370;-94
2023/04/14 00:32:06;;;;;;;18.60;3.13;;;;;;;;;;6245370;23;20005;-95
2023/04/14 00:34:35;;;;;;;12.27;2.80;;;;;;;;;;6244871;23;20001;-95
2023/04/14 00:37:06;;;;;;;10.27;2.63;;;;;;;;;;6220229;23;20398;-95
2023/04/14 00:39:43;;;;;;;9.75;2.65;;;;;;;;;;6245770;23;20427;-94
2023/04/14 00:42:09;;;;;;;10.45;2.40;;;;;;;;;;6219534;23;20347;-95
2023/04/14 00:44:37;;;;;;;16.67;2.95;;;;;;;;;;6218994;23;20008;-95
2023/04/14 00:47:05;;;;;;;11.10;2.65;;;;;;;;;;6244610;23;20009;-95
2023/04/14 00:49:31;;;;;;;11.05;2.50;;;;;;;;;;6245183;23;20462;-95
2023/04/14 00:51:58;;;;;;;13.45;3.05;;;;;;;;;;6220139;23;20015;-93
2023/04/14 00:54:28;;;;;;;16.30;2.13;;;;;;;;;;6245501;23;20005;-95
2023/04/14 00:56:56;;;;;;;8.45;2.67;;;;;;;;;;6219598;23;20008;-95
2023/04/14 00:59:32;;;;;;;10.25;2.80;;;;;;;;;;6244405;23;20493;-94
2023/04/14 01:04:57;;;;;;;10.25;2.67;;;;;;;;;;6171024;23;20064;-95
2023/04/14 01:07:25;;;;;;;10.70;2.55;;;;;;;;;;6220444;23;20548;-95
2023/04/14 01:10:11;;;;;;;14.25;2.40;;;;;;;;;;6246312;23;20004;-94
2023/04/14 01:12:49;;;;;;;9.13;3.47;;;;;;;;;;6199439;23;20008;-95
2023/04/14 01:15:19;;;;;;;13.77;2.58;;;;;;;;;;6246266;23;20004;-95
2023/04/14 01:17:56;;;;;;;6.78;2.70;;;;;;;;;;6245754;23;20008;-95
2023/04/14 01:20:30;;;;;;;13.25;3.13;;;;;;;;;;6247207;23;20016;-95
2023/04/14 01:23:06;;;;;;;15.80;3.03;;;;;;;;;;6245614;22;20051;-94
2023/04/14 01:25:32;;;;;;;;;;;;;;;;;;6221457;23;20019;-95
2023/04/14 01:28:09;;;;;;;11.77;3.28;;;;;;;;;;6220078;23;19919;-95
2023/04/14 01:30:44;;;;;;;14.88;3.47;;;;;;;;;;6244724;23;20013;-96
2023/04/14 01:33:13;;;;;;;14.75;3.50;;;;;;;;;;6246472;23;20059;-95
2023/04/14 01:36:15;;;;;;;;;;;;;;;;;;;;;
2023/04/14 01:38:45;;;;;;;12.55;3.03;;;;;;;;;;6186518;23;20020;-95
2023/04/14 01:41:13;;;;;;;12.57;3.35;;;;;;;;;;6246745;23;20000;-95
2023/04/14 01:43:45;;;;;;;7.10;2.70;;;;;;;;;;6245264;23;20005;-95
2023/04/14 01:46:13;;;;;;;12.95;3.33;;;;;;;;;;6245587;23;20450;-95
2023/04/14 01:48:43;;;;;;;17.73;4.72;;;;;;;;;;6245598;23;20018;-94
2023/04/14 01:51:26;;;;;;;22.08;6.65;;;;;;;;;;6245094;23;20005;-94
2023/04/14 01:53:57;;;;;;;20.83;8.55;;;;;;;;;;6219625;23;20009;-94
2023/04/14 01:56:25;;;;;;;12.10;4.57;;;;;;;;;;6244647;23;20060;-94
2023/04/14 01:59:24;;;;;;;15.23;4.10;;;;;;;;;;6244170;23;20032;-95
2023/04/14 02:01:51;;;;;;;11.15;3.15;;;;;;;;;;6209017;23;20013;-94
2023/04/14 02:04:25;;;;;;;14.70;3.85;;;;;;;;;;6244482;23;20015;-94
2023/04/14 02:06:52;;;;;;;11.63;3.15;;;;;;;;;;6221246;23;20011;-94
2023/04/14 02:09:19;;;;;;;16.33;2.88;;;;;;;;;;6245028;23;20004;-94
2023/04/14 02:11:55;;;;;;;6.70;2.63;;;;;;;;;;6218952;23;20453;-95
2023/04/14 02:14:23;;;;;;;7.07;2.22;;;;;;;;;;6218794;23;20005;-95
2023/04/14 02:16:57;;;;;;;9.82;2.72;;;;;;;;;;6220352;23;20407;-95
2023/04/14 02:19:32;;;;;;;8.40;2.75;;;;;;;;;;6222339;23;20046;-94
2023/04/14 02:22:02;;;;;;;9.60;2.40;;;;;;;;;;6245140;23;20081;-94
2023/04/14 02:24:42;;;;;;;10.85;2.40;;;;;;;;;;6221046;22;20028;-94
2023/04/14 02:27:16;;;;;;;10.68;2.45;;;;;;;;;;6220962;23;20016;-94
2023/04/14 02:29:47;;;;;;;7.28;2.50;;;;;;;;;;6219244;23;20000;-94
2023/04/14 02:32:23;;;;;;;10.80;2.60;;;;;;;;;;6244316;23;20336;-94
2023/04/14 02:35:00;;;;;;;8.40;2.85;;;;;;;;;;6219909;23;20009;-94
2023/04/14 02:37:31;;;;;;;6.10;2.55;;;;;;;;;;6243980;23;20004;-94
2023/04/14 02:40:02;;;;;;;5.97;2.35;;;;;;;;;;6244253;23;20012;-94
2023/04/14 02:42:32;;;;;;;12.75;3.28;;;;;;;;;;6243078;23;20075;-94
2023/04/14 02:45:02;;;;;;;8.20;3.08;;;;;;;;;;6218118;23;20015;-94
2023/04/14 02:47:43;;;;;;;;;;;;;;;;;;;;;
2023/04/14 02:50:12;;;;;;;18.60;3.47;;;;;;;;;;6220068;23;20032;-93
2023/04/14 02:52:39;;;;;;;9.02;2.75;;;;;;;;;;6241289;23;20378;-93
2023/04/14 02:55:06;;;;;;;12.00;3.13;;;;;;;;;;6214755;23;20035;-94
2023/04/14 02:57:41;;;;;;;11.05;3.08;;;;;;;;;;6213829;23;20017;-93
2023/04/14 03:00:11;;;;;;;8.27;2.85;;;;;;;;;;6215477;23;20079;-93
2023/04/14 03:02:49;;;;;;;9.55;2.88;;;;;;;;;;6217072;23;20023;-95
2023/04/14 03:05:27;;;;;;;14.52;2.90;;;;;;;;;;6242302;23;20005;-94
2023/04/14 03:07:54;;;;;;;21.05;3.20;;;;;;;;;;6219559;23;20012;-95
2023/04/14 03:10:22;;;;;;;9.98;3.25;;;;;;;;;;6241765;23;20020;-94
2023/04/14 03:12:49;;;;;;;13.15;3.10;;;;;;;;;;6242537;23;20004;-94
2023/04/14 03:15:20;;;;;;;10.75;3.00;;;;;;;;;;6192871;23;20012;-94
2023/04/14 03:17:51;;;;;;;12.95;2.63;;;;;;;;;;6220361;23;20005;-94
2023/04/14 03:23:10;;;;;;;10.77;3.42;;;;;;;;;;6203590;23;20079;-95
2023/04/14 03:25:43;;;;;;;14.88;2.78;;;;;;;;;;6221720;22;20030;-94
2023/04/14 03:28:14;;;;;;;14.15;3.20;;;;;;;;;;6245646;23;20434;-94
2023/04/14 03:30:47;;;;;;;17.75;3.78;;;;;;;;;;6245842;23;20010;-94
2023/04/14 03:33:37;;;;;;;8.32;3.30;;;;;;;;;;6244661;23;20000;-94
2023/04/14 03:36:13;;;;;;;9.40;3.33;;;;;;;;;;6202930;23;20012;-94
2023/04/14 03:38:39;;;;;;;;;;;;;;;;;;6246832;23;20020;-95
2023/04/14 03:41:06;;;;;;;;;;;;;;;;;;6221571;23;19904;-93
2023/04/14 03:43:35;;;;;;;10.82;2.60;;;;;;;;;;6221286;23;19904;-95
2023/04/14 03:46:04;;;;;;;8.73;3.40;;;;;;;;;;6223231;23;20031;-95
2023/04/14 03:48:33;;;;;;;12.60;2.75;;;;;;;;;;6224581;23;20016;-95
2023/04/14 03:51:03;;;;;;;6.00;2.38;;;;;;;;;;6249106;23;20257;-93
2023/04/14 03:53:33;;;;;;;6.47;3.00;;;;;;;;;;6250875;23;20087;-96
2023/04/14 03:56:00;;;;;;;11.88;2.55;;;;;;;;;;6202601;23;20009;-95
2023/04/14 03:58:31;;;;;;;9.95;3.20;;;;;;;;;;6226887;23;20016;-94
2023/04/14 04:00:57;;;;;;;9.60;3.35;;;;;;;;;;6252817;23;20016;-94
2023/04/14 04:03:25;;;;;;;16.20;3.13;;;;;;;;;;6228794;23;20059;-94
2023/04/14 04:06:25;;;;;;;14.65;3.33;;;;;;;;;;6254669;23;20012;-94
2023/04/14 04:08:48;;;;;;;10.85;2.78;;;;;;;;;;6224500;23;20064;-94
2023/04/14 04:11:19;;;;;;;14.63;3.50;;;;;;;;;;6256284;23;20009;-94
2023/04/14 04:13:48;;;;;;;12.90;2.90;;;;;;;;;;6255209;23;20015;-94
2023/04/14 04:16:18;;;;;;;9.35;2.83;;;;;;;;;;6254219;23;20008;-95
2023/04/14 04:18:47;;;;;;;11.32;3.33;;;;;;;;;;6226753;23;20407;-95
2023/04/14 04:21:21;;;;;;;9.55;3.10;;;;;;;;;;6226939;23;20009;-94
2023/04/14 04:23:53;;;;;;;8.13;3.05;;;;;;;;;;6251544;23;20339;-94
2023/04/14 04:26:37;;;;;;;10.57;3.30;;;;;;;;;;6253466;22;20021;-94
2023/04/14 04:32:14;;;;;;;9.90;3.33;;;;;;;;;;6188185;23;20004;-94
2023/04/14 04:34:44;;;;;;;17.35;3.75;;;;;;;;;;6201928;23;20012;-95
2023/04/14 04:37:11;;;;;;;11.32;3.78;;;;;;;;;;6254048;23;20024;-96
2023/04/14 04:40:03;;;;;;;13.73;3.75;;;;;;;;;;6226550;23;20367;-95
2023/04/14 04:42:31;;;;;;;12.50;3.55;;;;;;;;;;6226373;23;20013;-94
2023/04/14 04:44:57;;;;;;;9.98;3.63;;;;;;;;;;6225667;23;20023;-94
2023/04/14 04:47:26;;;;;;;11.45;3.95;;;;;;;;;;6226844;23;20012;-95
2023/04/14 04:49:52;;;;;;;13.32;3.90;;;;;;;;;;6200913;23;20005;-95
2023/04/14 04:52:18;;;;;;;14.43;3.80;;;;;;;;;;6225489;23;20008;-95
2023/04/14 04:54:50;;;;;;;7.70;3.60;;;;;;;;;;6250162;23;20033;-95
2023/04/14 04:57:17;;;;;;;18.08;4.15;;;;;;;;;;6226858;23;20015;-95
2023/04/14 04:59:43;;;;;;;12.95;3.67;;;;;;;;;;6225233;23;20028;-96
2023/04/14 05:02:15;;;;;;;11.98;3.63;;;;;;;;;;6224916;23;20013;-96
2023/04/14 05:04:50;;;;;;;7.82;3.72;;;;;;;;;;6225886;23;20418;-95
2023/04/14 05:07:23;;;;;;;;;;;;;;;;;;6224713;23;20316;-95
2023/04/14 05:09:49;;;;;;;8.38;3.50;;;;;;;;;;6224050;23;19975;-95
2023/04/14 05:12:16;;;;;;;16.02;3.72;;;;;;;;;;6225069;23;20008;-95
2023/04/14 05:14:48;;;;;;;15.52;3.60;;;;;;;;;;6224401;23;20008;-96
2023/04/14 05:17:15;;;;;;;10.68;3.33;;;;;;;;;;6224533;23;20072;-95
2023/04/14 05:22:33;;;;;;;15.10;3.85;;;;;;;;;;6190132;23;20114;-96
2023/04/14 05:25:00;;;;;;;9.80;3.80;;;;;;;;;;6248221;22;20009;-96
2023/04/14 05:27:27;;;;;;;9.45;3.70;;;;;;;;;;6196021;23;20035;-96
2023/04/14 05:30:21;;;;;;;11.55;3.60;;;;;;;;;;6167368;23;20012;-94
2023/04/14 05:32:50;;;;;;;14.93;3.88;;;;;;;;;;6166140;23;20020;-95
2023/04/14 05:35:16;;;;;;;10.43;3.53;;;;;;;;;;6168054;23;20001;-96
2023/04/14 05:37:53;;;;;;;15.23;3.22;;;;;;;;;;6142691;23;20017;-95
2023/04/14 05:40:28;;;;;;;18.85;3.42;;;;;;;;;;6168078;23;20009;-95
2023/04/14 05:43:18;;;;;;;8.48;2.75;;;;;;;;;;6120756;23;20032;-95
2023/04/14 05:45:46;;;;;;;11.25;5.25;;;;;;;;;;6172602;23;20009;-96
2023/04/14 05:48:13;;;;;;;13.05;3.78;;;;;;;;;;6172950;23;20009;-95
2023/04/14 05:50:39;;;;;;;12.02;3.22;;;;;;;;;;6166291;23;20035;-94
2023/04/14 05:53:10;;;;;;;14.07;3.90;;;;;;;;;;6165836;23;20020;-94
2023/04/14 05:55:47;;;;;;;7.07;3.97;;;;;;;;;;6171724;23;20005;-95
2023/04/14 06:01:02;;;;;;;8.98;3.42;;;;;;;;;;6165585;23;20017;-94
2023/04/14 06:03:30;;;;;;;12.38;3.20;;;;;;;;;;6165392;23;20072;-95
2023/04/14 06:05:56;;;;;;;10.68;3.67;;;;;;;;;;6141442;23;20060;-94
2023/04/14 06:08:34;;;;;;;12.73;3.85;;;;;;;;;;6172254;23;20005;-95
2023/04/14 06:11:00;;;;;;;12.32;4.70;;;;;;;;;;6137794;23;20013;-94
2023/04/14 06:13:26;;;;;;;14.07;4.10;;;;;;;;;;6145238;23;20020;-94
2023/04/14 06:16:13;;;;;;;20.55;3.60;;;;;;;;;;6174813;23;20005;-94
2023/04/14 06:18:41;;;;;;;10.27;4.20;;;;;;;;;;6107564;23;20006;-94
2023/04/14 06:21:14;;;;;;;12.45;3.30;;;;;;;;;;6154312;23;20041;-94
2023/04/14 06:23:41;;;;;;;5.07;3.30;;;;;;;;;;6165071;23;20091;-93
2023/04/14 06:26:24;;;;;;;6.80;3.03;;;;;;;;;;6192564;22;20356;-95
2023/04/14 06:28:51;;;;;;;9.63;3.45;;;;;;;;;;6162550;23;20013;-95
2023/04/14 06:31:21;;;;;;;8.52;3.15;;;;;;;;;;6162468;23;20009;-94
2023/04/14 06:33:51;;;;;;;8.15;2.97;;;;;;;;;;6165084;23;20040;-95
2023/04/14 06:36:18;;;;;;;16.45;3.60;;;;;;;;;;6141356;23;20009;-95
2023/04/14 06:38:48;;;;;;;7.50;3.38;;;;;;;;;;6166243;23;20063;-95
2023/04/14 06:41:29;;;;;;;12.00;3.53;;;;;;;;;;6167626;23;20015;-94
2023/04/14 06:44:18;;;;;;;7.45;2.47;;;;;;;;;;6169096;23;20041;-96
2023/04/14 06:47:04;;;;;;;;;;;;;;;;;;;;;
2023/04/14 06:49:31;;;;;;;8.00;3.08;;;;;;;;;;6174338;23;20078;-95
2023/04/14 06:51:58;;;;;;;11.23;3.65;;;;;;;;;;6146737;23;20037;-96
2023/04/14 06:54:30;;;;;;;8.45;3.10;;;;;;;;;;6146380;23;20011;-96
2023/04/14 06:59:46;;;;;;;11.55;3.35;;;;;;;;;;6114292;23;20017;-95
2023/04/14 07:02:14;;;;;;;13.18;3.80;;;;;;;;;;6109577;23;20010;-95
2023/04/14 07:04:43;;;;;;;13.63;3.42;;;;;;;;;;6133563;23;20017;-96
2023/04/14 07:07:19;;;;;;;6.40;2.90;;;;;;;;;;6147932;23;20005;-96
2023/04/14 07:09:48;;;;;;;;;;;;;;;;;;6168546;23;20005;-96
2023/04/14 07:12:17;;;;;;;8.70;2.92;;;;;;;;;;6172130;23;19900;-96
2023/04/14 07:14:50;;;;;;;19.60;3.55;;;;;;;;;;6148462;23;20016;-95
2023/04/14 07:17:48;;;;;;;8.30;3.25;;;;;;;;;;6173488;23;20009;-96
2023/04/14 07:20:17;;;;;;;12.38;3.42;;;;;;;;;;6163286;23;20024;-96
2023/04/14 07:25:41;;;;;;;11.10;3.22;;;;;;;;;;6182578;22;20013;-96
2023/04/14 07:28:31;;;;;;;10.07;2.53;;;;;;;;;;6172543;23;20013;-96
2023/04/14 07:31:57;;;;;;;6.13;2.28;;;;;;;;;;6165949;23;20005;-96
2023/04/14 07:33:55;;;;;;;10.13;2.67;;;;;;;;;;6166482;23;20013;-94
2023/04/14 07:36:30;;;;;;;8.40;2.13;;;;;;;;;;6148146;23;20001;-94
2023/04/14 07:38:59;;;;;;;17.63;6.13;;;;;;;;;;6173877;23;20448;-94
2023/04/14 07:42:03;;;;;;;;;;;;;;;;;;;;;
2023/04/14 07:44:23;;;;;;;21.30;2.40;;;;;;;;;;6171791;23;20013;-96
2023/04/14 07:46:53;;;;;;;10.60;2.42;;;;;;;;;;6154576;23;20016;-95
2023/04/14 07:49:23;;;;;;;11.13;2.58;;;;;;;;;;6156946;23;19993;-95
2023/04/14 07:51:52;;;;;;;10.02;2.47;;;;;;;;;;6159638;23;20049;-95
2023/04/14 07:57:21;;;;;;;;;;;;;;;;;;;;;
2023/04/14 07:59:54;;;;;;;;;;;;;;;;;;6188350;23;20013;-96
2023/04/14 08:02:22;;;;;;;8.70;2.22;;;;;;;;;;6174501;23;19904;-95
2023/04/14 08:04:48;;;;;;;6.85;2.20;;;;;;;;;;6150128;23;20021;-94
2023/04/14 08:07:46;;;;;;;13.23;2.75;;;;;;;;;;6148450;23;20041;-94
2023/04/14 08:10:35;;;;;;;8.07;2.08;;;;;;;;;;6108144;23;20022;-95
2023/04/14 08:16:26;;;;;;;7.78;1.70;;;;;;;;;;5940237;23;20017;-94
2023/04/14 08:18:52;;;;;;;7.88;2.55;;;;;;;;;;5961861;24;20087;-96
2023/04/14 08:24:18;;;;;;;4.55;1.70;;;;;;;;;;6119856;23;20014;-95
2023/04/14 08:27:07;;;;;;;10.35;2.35;;;;;;;;;;6189563;23;20028;-96
2023/04/14 08:29:51;;;;;;;10.77;1.77;;;;;;;;;;6204967;23;20009;-96
2023/04/14 08:32:29;;;;;;;9.65;2.15;;;;;;;;;;6229882;23;20506;-96
2023/04/14 08:34:58;;;;;;;7.13;2.20;;;;;;;;;;6255903;23;20052;-95
2023/04/14 08:37:33;;;;;;;6.97;2.20;;;;;;;;;;6230920;23;20009;-95
2023/04/14 08:40:00;;;;;;;;;;;;;;;;;;6255199;23;20087;-96
2023/04/14 08:42:27;;;;;;;9.48;2.28;;;;;;;;;;6231769;23;19920;-94
2023/04/14 08:44:54;;;;;;;6.90;2.53;;;;;;;;;;6230133;23;20008;-96
2023/04/14 08:47:36;;;;;;;;;;;;;;;;;;;;;
2023/04/14 08:50:07;;;;;;;5.60;2.33;;;;;;;;;;6234432;23;20000;-96
2023/04/14 08:52:39;;;;;;;9.52;2.00;;;;;;;;;;6258695;23;20092;-95
2023/04/14 08:58:25;;;;;;;8.88;2.40;;;;;;;;;;6140756;23;20057;-96
2023/04/14 09:00:55;;;;;;;8.88;2.20;;;;;;;;;;6120756;23;20038;-96
2023/04/14 09:06:51;;;;;;;8.93;2.50;;;;;;;;;;6220179;23;20019;-95
2023/04/14 09:12:20;;;;;;;6.68;1.67;;;;;;;;;;6061439;23;19991;-96
2023/04/14 09:15:27;;;;;;;;;;;;;;;;;;;;;
2023/04/14 09:24:22;;;;;;;10.10;3.25;;;;;;;;;;6144795;23;19994;-95
2023/04/14 09:27:04;;;;;;;6.32;2.40;;;;;;;;;;6262044;22;20003;-95
2023/04/14 09:30:17;;;;;;;;;;;;;;;;;;;;;
2023/04/14 09:33:31;;;;;;;12.35;2.60;;;;;;;;;;6206125;23;20020;-95
2023/04/14 09:36:30;;;;;;;7.55;2.25;;;;;;;;;;6182985;23;20009;-94
2023/04/14 11:46:31;;;;;;;9.25;2.70;;;;;;;;;;6169905;22;20125;-95
2023/04/14 11:51:55;;;;;;;7.72;2.58;;;;;;;;;;6157694;23;20384;-94
2023/04/14 11:54:42;;;;;;;5.85;2.97;;;;;;;;;;6168288;23;20006;-95
2023/04/14 11:57:17;;;;;;;11.10;3.42;;;;;;;;;;6170902;23;20064;-96
2023/04/14 12:00:04;;;;;;;6.65;2.85;;;;;;;;;;6168567;23;20483;-95
2023/04/14 12:02:44;;;;;;;7.63;2.88;;;;;;;;;;6169850;23;20006;-95
2023/04/14 12:05:12;;;;;;;10.85;3.30;;;;;;;;;;6171827;23;20017;-95
2023/04/14 12:07:43;;;;;;;8.10;2.88;;;;;;;;;;6173834;23;20056;-96
2023/04/14 12:10:20;;;;;;;10.38;2.40;;;;;;;;;;6173649;23;20065;-96
2023/04/14 12:12:57;;;;;;;8.73;2.53;;;;;;;;;;6174646;23;20072;-96
2023/04/14 12:15:26;;;;;;;9.15;2.50;;;;;;;;;;6174871;23;20009;-96
2023/04/14 12:18:15;;;;;;;7.85;2.20;;;;;;;;;;6173881;23;20010;-96
2023/04/14 12:20:47;;;;;;;12.73;2.85;;;;;;;;;;6174232;23;20123;-96
2023/04/14 12:23:15;;;;;;;10.68;2.42;;;;;;;;;;6173331;23;19989;-96
2023/04/14 12:28:30;;;;;;;7.32;1.90;;;;;;;;;;6083332;23;20011;-96
2023/04/14 12:31:06;;;;;;;6.30;2.60;;;;;;;;;;6056416;23;20068;-96
2023/04/14 12:33:34;;;;;;;7.60;2.05;;;;;;;;;;6105819;23;20446;-95
2023/04/14 12:36:02;;;;;;;9.68;4.53;;;;;;;;;;6168083;23;20428;-95
2023/04/14 12:38:28;;;;;;;8.15;2.60;;;;;;;;;;6165869;23;20057;-96
2023/04/14 12:44:06;;;;;;;8.27;2.60;;;;;;;;;;6167631;23;20045;-95
2023/04/14 12:46:33;;;;;;;10.32;3.75;;;;;;;;;;6114561;23;20330;-94
2023/04/14 12:48:59;;;;;;;7.10;2.85;;;;;;;;;;6142133;23;20010;-96
2023/04/14 12:51:36;;;;;;;;;;;;;;;;;;;;;
2023/04/14 12:55:16;;;;;;;;;;;;;;;;;;;;;
2023/04/14 12:57:02;;;;;;;10.63;2.45;;;;;;;;;;6148214;23;20033;-94
2023/04/14 12:59:28;;;;;;;7.72;2.28;;;;;;;;;;6166705;23;20027;-95
2023/04/14 13:01:55;;;;;;;9.43;2.05;;;;;;;;;;6145354;23;20036;-95
2023/04/14 13:04:21;;;;;;;5.07;1.98;;;;;;;;;;6139511;23;20010;-95
2023/04/14 13:06:59;;;;;;;7.82;2.05;;;;;;;;;;6138048;23;20028;-95
2023/04/14 13:09:28;;;;;;;9.75;2.40;;;;;;;;;;6139770;23;20084;-95
2023/04/14 13:12:19;;;;;;;6.28;2.78;;;;;;;;;;6139851;23;20005;-96
2023/04/14 13:14:44;;;;;;;8.90;1.95;;;;;;;;;;6162167;23;20037;-96
2023/04/14 13:20:32;;;;;;;5.95;2.17;;;;;;;;;;6062974;23;20019;-94
2023/04/14 13:23:37;;;;;;;7.05;1.90;;;;;;;;;;6074649;23;20014;-95
2023/04/14 13:26:11;;;;;;;6.90;2.00;;;;;;;;;;6154239;23;20005;-96
2023/04/14 13:31:23;;;;;;;6.70;2.22;;;;;;;;;;6102629;23;20037;-94
2023/04/14 13:33:51;;;;;;;8.63;2.30;;;;;;;;;;6164233;23;20005;-94
2023/04/14 13:36:36;;;;;;;9.73;2.30;;;;;;;;;;6164065;23;20013;-95
2023/04/14 13:39:05;;;;;;;8.93;2.60;;;;;;;;;;6165147;23;20017;-93
2023/04/14 13:41:44;;;;;;;11.07;2.10;;;;;;;;;;6164035;23;20005;-95
2023/04/14 13:44:37;;;;;;;9.98;2.17;;;;;;;;;;6165952;23;20016;-95
2023/04/14 13:47:12;;;;;;;9.00;2.67;;;;;;;;;;6160290;23;20048;-96
2023/04/14 13:49:38;;;;;;;6.13;2.13;;;;;;;;;;6139616;23;20017;-95
2023/04/14 13:52:30;;;;;;;12.80;3.15;;;;;;;;;;6141144;23;20085;-95
2023/04/14 13:55:05;;;;;;;7.57;2.78;;;;;;;;;;6166901;23;20406;-94
2023/04/14 13:57:41;;;;;;;6.75;3.00;;;;;;;;;;6164090;23;20019;-95
2023/04/14 14:00:08;;;;;;;;;;;;;;;;;;6164035;23;20013;-95
2023/04/14 14:02:38;;;;;;;7.13;2.67;;;;;;;;;;6165616;23;20279;-96
2023/04/14 14:05:10;;;;;;;8.68;2.47;;;;;;;;;;6166280;23;20009;-96
2023/04/14 14:07:39;;;;;;;6.63;2.42;;;;;;;;;;6139248;23;20514;-95
2023/04/14 14:10:08;;;;;;;4.60;1.60;;;;;;;;;;6137539;23;20013;-96
2023/04/14 14:12:37;;;;;;;6.07;2.25;;;;;;;;;;6137306;23;20009;-96
2023/04/14 14:15:05;;;;;;;5.03;1.77;;;;;;;;;;6159925;23;20005;-95
2023/04/14 14:17:43;;;;;;;;;;;;;;;;;;;;;
2023/04/14 14:20:13;;;;;;;4.93;2.00;;;;;;;;;;6161601;23;20031;-95
2023/04/14 14:22:46;;;;;;;6.25;2.08;;;;;;;;;;6160756;23;20005;-95
2023/04/14 14:28:01;;;;;;;7.18;2.22;;;;;;;;;;6163273;23;20036;-94
2023/04/14 14:30:27;;;;;;;9.98;2.50;;;;;;;;;;6137652;23;20009;-94
2023/04/14 14:32:56;;;;;;;7.22;3.05;;;;;;;;;;6136533;23;20014;-96
2023/04/14 14:35:24;;;;;;;5.93;2.58;;;;;;;;;;6162466;23;20001;-96
2023/04/14 14:37:51;;;;;;;11.50;4.95;;;;;;;;;;6161932;23;20056;-96
2023/04/14 14:40:36;;;;;;;10.18;2.65;;;;;;;;;;6162257;23;20001;-93
2023/04/14 14:43:02;;;;;;;7.75;2.80;;;;;;;;;;6162205;23;20041;-94
2023/04/14 14:45:31;;;;;;;11.25;3.33;;;;;;;;;;6136108;23;20077;-92
2023/04/14 14:48:10;;;;;;;9.90;3.30;;;;;;;;;;6159857;23;20021;-94
2023/04/14 14:50:36;;;;;;;4.85;2.50;;;;;;;;;;6137169;23;20014;-95
2023/04/14 14:53:06;;;;;;;5.65;2.72;;;;;;;;;;6162150;23;20340;-94
2023/04/14 14:55:37;;;;;;;8.77;2.63;;;;;;;;;;6138294;23;20036;-94
2023/04/14 14:58:14;;;;;;;7.72;2.78;;;;;;;;;;6138809;23;20543;-94
2023/04/14 15:00:53;;;;;;;7.03;2.65;;;;;;;;;;6162459;23;20020;-93
2023/04/14 15:03:51;;;;;;;8.57;2.45;;;;;;;;;;6140994;23;20009;-95
2023/04/14 15:06:21;;;;;;;9.80;2.20;;;;;;;;;;6163300;23;20012;-93
2023/04/14 15:08:48;;;;;;;10.07;3.05;;;;;;;;;;6163715;23;20013;-93
2023/04/14 15:11:21;;;;;;;7.30;2.92;;;;;;;;;;6141072;23;20006;-95
2023/04/14 15:14:16;;;;;;;8.73;2.60;;;;;;;;;;6164055;23;20009;-94
2023/04/14 15:16:48;;;;;;;7.85;2.40;;;;;;;;;;6127957;23;20002;-94
2023/04/14 15:19:15;;;;;;;6.65;2.72;;;;;;;;;;6144989;23;20017;-94
2023/04/14 15:21:42;;;;;;;10.57;2.53;;;;;;;;;;6141130;23;20395;-95
2023/04/14 15:24:17;;;;;;;5.72;2.83;;;;;;;;;;6165068;23;20542;-94
2023/04/14 15:26:47;;;;;;;9.83;3.37;;;;;;;;;;6140933;23;20021;-93
2023/04/14 15:29:14;;;;;;;8.82;2.58;;;;;;;;;;6138051;23;20036;-93
2023/04/14 15:31:43;;;;;;;7.00;3.05;;;;;;;;;;6160700;23;20006;-93
2023/04/14 15:34:20;;;;;;;6.43;3.22;;;;;;;;;;6156769;23;20017;-94
2023/04/14 15:36:50;;;;;;;10.88;3.45;;;;;;;;;;6162284;23;20012;-94
2023/04/14 15:39:27;;;;;;;9.05;3.25;;;;;;;;;;6160167;23;20068;-95
2023/04/14 15:42:06;;;;;;;13.07;4.07;;;;;;;;;;6137286;23;20069;-94
2023/04/14 15:44:33;;;;;;;10.80;3.80;;;;;;;;;;6161721;23;20436;-93
2023/04/14 15:47:08;;;;;;;14.18;3.97;;;;;;;;;;6143360;23;20076;-94
2023/04/14 15:49:41;;;;;;;8.55;3.58;;;;;;;;;;6144950;23;20006;-94
2023/04/14 15:52:22;;;;;;;;;;;;;;;;;;;;;
2023/04/14 15:55:25;;;;;;;12.93;4.03;;;;;;;;;;6146210;23;20036;-94
2023/04/14 15:57:54;;;;;;;13.27;3.95;;;;;;;;;;6140466;23;20025;-95
2023/04/14 16:00:24;;;;;;;14.43;4.43;;;;;;;;;;6173987;23;20002;-94
2023/04/14 16:03:00;;;;;;;21.27;6.38;;;;;;;;;;6171459;23;20391;-94
2023/04/14 16:05:36;;;;;;;9.10;3.75;;;;;;;;;;6149528;23;20016;-94
2023/04/14 16:08:02;;;;;;;;;;;;;;;;;;6173678;23;20016;-94
2023/04/14 16:11:01;;;;;;;8.77;3.33;;;;;;;;;;6172603;23;19900;-94
2023/04/14 16:13:36;;;;;;;12.82;3.35;;;;;;;;;;6172939;23;20055;-94
2023/04/14 16:16:20;;;;;;;15.45;4.35;;;;;;;;;;6148891;23;20014;-93
2023/04/14 16:22:10;;;;;;;9.88;3.45;;;;;;;;;;6068958;23;19999;-94
2023/04/14 16:24:45;;;;;;;13.85;3.70;;;;;;;;;;6059947;23;20010;-94
2023/04/14 16:27:12;;;;;;;17.83;3.70;;;;;;;;;;6166782;23;20010;-95
2023/04/14 16:29:41;;;;;;;13.93;4.05;;;;;;;;;;6161276;23;20009;-94
2023/04/14 16:32:07;;;;;;;9.43;4.05;;;;;;;;;;6161447;23;20036;-93
2023/04/14 16:34:37;;;;;;;9.40;4.35;;;;;;;;;;6137842;23;20017;-95
2023/04/14 16:37:03;;;;;;;12.00;4.85;;;;;;;;;;6139399;23;20012;-94
2023/04/14 16:39:30;;;;;;;11.05;4.78;;;;;;;;;;6140450;23;20009;-94
2023/04/14 16:41:56;;;;;;;13.90;5.22;;;;;;;;;;6165654;23;20384;-94
2023/04/14 16:44:22;;;;;;;11.23;5.03;;;;;;;;;;6168515;23;20035;-95
2023/04/14 16:46:48;;;;;;;13.85;5.32;;;;;;;;;;6151978;23;20067;-94
2023/04/14 16:49:18;;;;;;;15.73;4.80;;;;;;;;;;6175599;23;20040;-92
2023/04/14 16:51:51;;;;;;;10.32;4.60;;;;;;;;;;6152411;23;20016;-93
2023/04/14 16:54:17;;;;;;;13.82;4.55;;;;;;;;;;6151252;23;20020;-93
2023/04/14 16:56:44;;;;;;;5.90;3.90;;;;;;;;;;6151273;23;20004;-93
2023/04/14 16:59:13;;;;;;;9.45;4.57;;;;;;;;;;6174592;23;20007;-92
2023/04/14 17:01:39;;;;;;;9.10;4.72;;;;;;;;;;6140601;23;20029;-94
2023/04/14 17:04:05;;;;;;;8.27;4.68;;;;;;;;;;6138523;23;20088;-94
2023/04/14 17:06:31;;;;;;;10.57;4.63;;;;;;;;;;6137053;23;20379;-93
2023/04/14 17:09:09;;;;;;;22.75;7.78;;;;;;;;;;6140555;23;20044;-93
2023/04/14 17:11:46;;;;;;;;;;;;;;;;;;;;;
2023/04/14 17:14:12;;;;;;;15.77;5.85;;;;;;;;;;6161539;23;20033;-94
2023/04/14 17:16:41;;;;;;;12.00;6.30;;;;;;;;;;6135360;23;20014;-93
2023/04/14 17:19:07;;;;;;;9.70;5.10;;;;;;;;;;6160686;23;20010;-94
2023/04/14 17:21:37;;;;;;;13.00;5.43;;;;;;;;;;6160474;23;20093;-93
2023/04/14 17:24:14;;;;;;;12.90;5.80;;;;;;;;;;6136082;23;20029;-94
2023/04/14 17:26:50;;;;;;;11.55;5.10;;;;;;;;;;6160256;23;20013;-94
2023/04/14 17:29:25;;;;;;;10.63;5.28;;;;;;;;;;6162923;23;20059;-94
2023/04/14 17:31:53;;;;;;;10.90;5.55;;;;;;;;;;6139728;23;20033;-94
2023/04/14 17:34:34;;;;;;;14.65;5.95;;;;;;;;;;6162246;23;20012;-93
2023/04/14 17:37:03;;;;;;;18.20;5.85;;;;;;;;;;6139554;23;20006;-93
2023/04/14 17:39:35;;;;;;;14.90;5.95;;;;;;;;;;6137808;23;20009;-93
2023/04/14 17:42:05;;;;;;;12.05;5.20;;;;;;;;;;6138380;23;20234;-93
2023/04/14 17:44:33;;;;;;;17.30;5.72;;;;;;;;;;6162583;23;20017;-93
2023/04/14 17:47:11;;;;;;;13.13;5.95;;;;;;;;;;6161953;23;20048;-93
2023/04/14 17:49:48;;;;;;;17.75;6.95;;;;;;;;;;6161530;23;20018;-93
2023/04/14 17:52:43;;;;;;;17.17;6.35;;;;;;;;;;6163694;23;20002;-94
2023/04/14 17:55:14;;;;;;;20.48;7.00;;;;;;;;;;6163462;23;20009;-95
2023/04/14 17:57:44;;;;;;;12.57;5.88;;;;;;;;;;6138583;23;20072;-94
2023/04/14 18:00:11;;;;;;;15.38;6.15;;;;;;;;;;6161556;23;20523;-95
2023/04/14 18:02:46;;;;;;;12.60;5.07;;;;;;;;;;6163194;23;20013;-94
2023/04/14 18:05:22;;;;;;;10.80;5.30;;;;;;;;;;6163246;23;20006;-93
2023/04/14 18:07:52;;;;;;;17.02;5.10;;;;;;;;;;6139463;23;20093;-94
2023/04/14 18:10:25;;;;;;;15.38;7.32;;;;;;;;;;6163531;23;20060;-94
2023/04/14 18:12:58;;;;;;;8.27;5.57;;;;;;;;;;6165006;23;20001;-93
2023/04/14 18:15:25;;;;;;;17.10;6.00;;;;;;;;;;6164309;23;20012;-94
2023/04/14 18:17:52;;;;;;;12.60;6.20;;;;;;;;;;6139122;23;20016;-94
2023/04/14 18:20:23;;;;;;;16.08;6.80;;;;;;;;;;6161258;23;20018;-94
2023/04/14 18:23:00;;;;;;;18.17;6.43;;;;;;;;;;6164091;23;20060;-94
2023/04/14 18:25:28;;;;;;;13.02;7.30;;;;;;;;;;6141605;23;20064;-94
2023/04/14 18:27:57;;;;;;;22.73;8.18;;;;;;;;;;6165228;23;20029;-93
2023/04/14 18:30:23;;;;;;;11.20;6.13;;;;;;;;;;6167770;23;20002;-94
2023/04/14 18:33:05;;;;;;;15.15;7.20;;;;;;;;;;6145142;23;20086;-94
2023/04/14 18:35:32;;;;;;;14.27;6.03;;;;;;;;;;6170453;23;20093;-93
2023/04/14 18:37:58;;;;;;;9.75;5.82;;;;;;;;;;6165999;23;20013;-94